Time;durP1;ratioP1;P1;durP2;ratioP2;P2;SDS_P1;SDS_P2;PMS_P1;PMS_P2;Temp;Humidity;BMP_temperature;BMP_pressure;BME280_temperature;BME280_humidity;BME280_pressure;Samples;Min_cycle;Max_cycle;Signal;HPM_P1;HPM_P2
2023/03/08 00:00:39;;;;;;;6.10;3.40;;;;;;;-0.16;100.00;98709.69;5070618;28;20261;-72
2023/03/08 00:03:04;;;;;;;4.13;3.73;;;;;;;-0.17;100.00;98711.56;5070081;28;20199;-72
2023/03/08 00:05:29;;;;;;;5.33;3.70;;;;;;;-0.12;100.00;98724.16;5070184;28;20557;-72
2023/03/08 00:07:55;;;;;;;2.00;1.90;;;;;;;-0.13;100.00;98728.72;5069696;28;20582;-71
2023/03/08 00:10:21;;;;;;;6.77;3.80;;;;;;;-0.13;100.00;98739.47;5070084;28;20185;-72
2023/03/08 00:12:46;;;;;;;5.57;5.13;;;;;;;-0.12;100.00;98733.00;5070352;28;20183;-72
2023/03/08 00:15:12;;;;;;;3.13;2.93;;;;;;;-0.11;100.00;98752.59;5071762;28;20425;-72
2023/03/08 00:17:37;;;;;;;2.63;2.43;;;;;;;-0.09;100.00;98740.50;5072105;28;20262;-72
2023/03/08 00:20:07;;;;;;;1.17;1.13;;;;;;;-0.07;100.00;98741.00;5073679;28;20179;-72
2023/03/08 00:22:40;;;;;;;3.03;2.83;;;;;;;-0.07;100.00;98746.38;5073436;28;20178;-72
2023/03/08 00:25:10;;;;;;;5.33;2.17;;;;;;;-0.05;100.00;98746.88;5073677;28;20423;-72
2023/03/08 00:27:36;;;;;;;4.77;3.60;;;;;;;-0.07;100.00;98745.56;5073251;28;20467;-72
2023/03/08 00:30:04;;;;;;;6.00;2.47;;;;;;;-0.09;100.00;98755.78;5073370;28;20908;-72
2023/03/08 00:32:30;;;;;;;5.87;2.07;;;;;;;-0.13;100.00;98755.56;5073298;28;20504;-72
2023/03/08 00:34:56;;;;;;;1.60;1.30;;;;;;;-0.17;100.00;98749.13;5073308;28;20293;-71
2023/03/08 00:37:21;;;;;;;0.40;0.40;;;;;;;-0.16;100.00;98756.09;5073372;28;20177;-74
2023/03/08 00:39:53;;;;;;;2.73;2.43;;;;;;;-0.15;100.00;98756.91;5073529;28;20187;-72
2023/03/08 00:42:22;;;;;;;0.73;0.73;;;;;;;-0.15;100.00;98749.66;5073273;28;20185;-71
2023/03/08 00:44:48;;;;;;;3.23;2.93;;;;;;;-0.17;100.00;98759.88;5073193;28;20476;-72
2023/03/08 00:47:14;;;;;;;1.57;1.50;;;;;;;-0.17;100.00;98753.72;5072888;28;20464;-72
2023/03/08 00:49:39;;;;;;;7.53;2.60;;;;;;;-0.21;100.00;98766.91;5073079;28;20630;-72
2023/03/08 00:52:05;;;;;;;2.80;2.60;;;;;;;-0.22;100.00;98762.63;5073631;28;20439;-72
2023/03/08 00:54:31;;;;;;;3.90;1.33;;;;;;;-0.25;100.00;98765.06;5072935;28;20175;-72
2023/03/08 00:56:56;;;;;;;1.97;1.87;;;;;;;-0.26;100.00;98766.16;5072744;28;20262;-73
2023/03/08 00:59:22;;;;;;;2.17;2.03;;;;;;;-0.31;100.00;98762.41;5072938;28;20183;-72
2023/03/08 01:01:47;;;;;;;2.53;2.07;;;;;;;-0.30;100.00;98765.88;5072820;28;20186;-72
2023/03/08 01:04:13;;;;;;;0.47;0.47;;;;;;;-0.26;100.00;98763.47;5072652;28;20170;-73
2023/03/08 01:06:39;;;;;;;2.33;2.17;;;;;;;-0.26;100.00;98771.53;5072396;28;20661;-72
2023/03/08 01:09:05;;;;;;;1.70;1.60;;;;;;;-0.22;100.00;98770.66;5072876;28;20313;-72
2023/03/08 01:11:32;;;;;;;2.67;2.47;;;;;;;-0.21;100.00;98772.25;5072674;28;20412;-71
2023/03/08 01:13:57;;;;;;;1.77;1.67;;;;;;;-0.18;100.00;98770.91;5072485;28;20580;-72
2023/03/08 01:16:26;;;;;;;9.57;2.20;;;;;;;-0.14;100.00;98769.28;5072459;28;20424;-72
2023/03/08 01:18:52;;;;;;;1.80;1.70;;;;;;;-0.11;100.00;98758.75;5072216;28;20177;-72
2023/03/08 01:21:18;;;;;;;1.50;1.40;;;;;;;-0.08;100.00;98766.25;5072474;28;20418;-71
2023/03/08 01:23:43;;;;;;;0.67;0.67;;;;;;;-0.06;100.00;98760.59;5072570;28;20175;-72
2023/03/08 01:26:14;;;;;;;0.40;0.40;;;;;;;-0.04;100.00;98763.78;5071135;28;20718;-71
2023/03/08 01:28:41;;;;;;;2.50;2.30;;;;;;;-0.04;100.00;98769.94;5072058;28;20618;-72
2023/03/08 01:31:10;;;;;;;2.97;0.63;;;;;;;-0.03;100.00;98760.81;5070866;28;20440;-71
2023/03/08 01:33:36;;;;;;;5.80;2.17;;;;;;;-0.02;100.00;98753.56;5072158;28;20166;-72
2023/03/08 01:36:03;;;;;;;2.57;2.37;;;;;;;-0.01;100.00;98753.28;5072143;28;20436;-72
2023/03/08 01:38:29;;;;;;;1.23;1.17;;;;;;;0.02;100.00;98757.31;5071945;28;20224;-71
2023/03/08 01:40:56;;;;;;;1.50;1.30;;;;;;;0.05;100.00;98753.25;5072120;28;20271;-72
2023/03/08 01:43:27;;;;;;;1.60;1.50;;;;;;;0.04;100.00;98747.06;5071985;28;20178;-71
2023/03/08 01:46:05;;;;;;;1.80;1.70;;;;;;;0.03;100.00;98750.84;5072103;28;20170;-72
2023/03/08 01:48:39;;;;;;;2.27;1.60;;;;;;;0.02;100.00;98745.75;5071974;28;20460;-72
2023/03/08 01:51:07;;;;;;;0.50;0.30;;;;;;;0.04;100.00;98743.59;5071814;28;20412;-72
2023/03/08 01:53:36;;;;;;;0.80;0.80;;;;;;;0.02;100.00;98745.75;5072142;28;20178;-72
2023/03/08 01:56:02;;;;;;;0.70;0.70;;;;;;;0.06;100.00;98752.16;5071661;28;20174;-72
2023/03/08 01:58:27;;;;;;;0.47;0.47;;;;;;;0.04;100.00;98739.03;5071437;28;20174;-73
2023/03/08 02:00:53;;;;;;;1.10;1.00;;;;;;;0.06;100.00;98749.47;5071665;28;20197;-71
2023/03/08 02:03:19;;;;;;;0.00;0.00;;;;;;;0.05;100.00;98747.88;5071941;28;20198;-72
2023/03/08 02:05:45;;;;;;;1.07;0.30;;;;;;;0.08;100.00;98744.63;5071845;28;20178;-71
2023/03/08 02:08:11;;;;;;;0.13;0.13;;;;;;;0.08;100.00;98734.69;5071231;28;20207;-72
2023/03/08 02:10:37;;;;;;;0.83;0.83;;;;;;;0.10;100.00;98740.56;5071537;28;20186;-77
2023/03/08 02:13:06;;;;;;;0.40;0.40;;;;;;;0.13;100.00;98731.13;5071387;28;20579;-72
2023/03/08 02:15:31;;;;;;;7.50;1.93;;;;;;;0.09;100.00;98725.53;5071283;28;20634;-74
2023/03/08 02:17:57;;;;;;;0.40;0.40;;;;;;;0.03;100.00;98725.88;5071435;28;20255;-72
2023/03/08 02:20:34;;;;;;;3.13;2.03;;;;;;;-0.01;100.00;98737.16;5071252;28;20171;-76
2023/03/08 02:23:18;;;;;;;1.87;1.40;;;;;;;-0.03;100.00;98733.97;5071160;28;20174;-72
2023/03/08 02:25:54;;;;;;;0.83;0.83;;;;;;;-0.01;100.00;98734.47;5071260;28;20186;-73
2023/03/08 02:28:24;;;;;;;2.23;1.53;;;;;;;-0.03;100.00;98728.59;5071009;28;20468;-72
2023/03/08 02:30:50;;;;;;;0.70;0.70;;;;;;;-0.01;100.00;98721.06;5071279;28;20171;-72
2023/03/08 02:33:16;;;;;;;0.40;0.40;;;;;;;-0.02;100.00;98721.34;5069782;28;20188;-72
2023/03/08 02:35:43;;;;;;;0.30;0.30;;;;;;;-0.02;100.00;98718.66;5070911;28;20201;-72
2023/03/08 02:38:12;;;;;;;1.00;1.00;;;;;;;0.02;100.00;98729.66;5070433;28;20739;-72
2023/03/08 02:40:39;;;;;;;0.10;0.10;;;;;;;0.03;100.00;98739.31;5071056;28;20174;-72
2023/03/08 02:43:05;;;;;;;2.80;2.33;;;;;;;0.04;100.00;98732.84;5070948;28;20519;-73
2023/03/08 02:45:32;;;;;;;1.10;0.60;;;;;;;0.03;100.00;98732.06;5070967;28;20178;-71
2023/03/08 02:47:58;;;;;;;0.80;0.80;;;;;;;0.02;100.00;98730.47;5070702;28;20197;-71
2023/03/08 02:50:23;;;;;;;0.60;0.60;;;;;;;0.07;100.00;98726.91;5071085;28;20227;-72
2023/03/08 02:52:49;;;;;;;0.87;0.87;;;;;;;0.06;100.00;98718.06;5070850;28;20228;-72
2023/03/08 02:55:14;;;;;;;0.40;0.40;;;;;;;0.07;100.00;98716.16;5070985;28;20179;-74
2023/03/08 02:57:39;;;;;;;0.70;0.70;;;;;;;0.09;100.00;98722.84;5070541;28;20297;-72
2023/03/08 03:00:05;;;;;;;1.93;1.83;;;;;;;0.07;100.00;98714.28;5070549;28;20266;-72
2023/03/08 03:02:32;;;;;;;1.70;1.60;;;;;;;0.07;100.00;98716.16;5070688;28;20573;-72
2023/03/08 03:04:57;;;;;;;3.33;2.57;;;;;;;0.02;100.00;98710.88;5070645;28;20296;-72
2023/03/08 03:07:23;;;;;;;2.03;1.93;;;;;;;-0.01;100.00;98707.63;5070324;28;20300;-73
2023/03/08 03:09:48;;;;;;;1.53;1.43;;;;;;;-0.05;100.00;98712.00;5070794;28;20288;-72
2023/03/08 03:12:13;;;;;;;7.13;2.07;;;;;;;-0.09;100.00;98712.84;5070774;28;20630;-72
2023/03/08 03:14:39;;;;;;;1.90;1.27;;;;;;;-0.18;100.00;98718.03;5070618;28;20539;-73
2023/03/08 03:17:04;;;;;;;5.13;3.73;;;;;;;-0.20;100.00;98714.81;5070409;28;20183;-73
2023/03/08 03:19:29;;;;;;;0.80;0.80;;;;;;;-0.24;100.00;98716.47;5070523;28;20167;-73
2023/03/08 03:21:55;;;;;;;3.43;3.13;;;;;;;-0.28;100.00;98714.66;5070686;28;20627;-72
2023/03/08 03:24:20;;;;;;;2.87;2.67;;;;;;;-0.31;100.00;98724.03;5070610;28;20183;-73
2023/03/08 03:26:45;;;;;;;2.53;2.33;;;;;;;-0.33;100.00;98721.66;5070341;28;20662;-72
2023/03/08 03:29:10;;;;;;;2.90;2.60;;;;;;;-0.33;100.00;98721.66;5070492;28;20265;-72
2023/03/08 03:31:36;;;;;;;1.37;1.17;;;;;;;-0.36;100.00;98716.06;5070322;28;20181;-72
2023/03/08 03:34:01;;;;;;;2.53;1.57;;;;;;;-0.37;100.00;98722.50;5070348;28;20266;-72
2023/03/08 03:36:27;;;;;;;2.77;2.57;;;;;;;-0.41;100.00;98710.75;5070367;28;20182;-72
2023/03/08 03:38:52;;;;;;;3.17;2.63;;;;;;;-0.43;100.00;98718.28;5070154;28;20174;-72
2023/03/08 03:41:21;;;;;;;4.50;4.10;;;;;;;-0.45;100.00;98720.41;5070540;28;20228;-74
2023/03/08 03:43:47;;;;;;;3.60;3.17;;;;;;;-0.42;100.00;98715.31;5070448;28;20268;-72
2023/03/08 03:46:15;;;;;;;8.73;3.77;;;;;;;-0.37;100.00;98714.47;5070299;28;20170;-72
2023/03/08 03:48:41;;;;;;;5.47;4.30;;;;;;;-0.37;100.00;98715.25;5069840;28;20963;-73
2023/03/08 03:51:21;;;;;;;3.57;2.93;;;;;;;-0.40;100.00;98712.34;5073459;28;20421;-72
2023/03/08 03:53:46;;;;;;;3.47;3.17;;;;;;;-0.42;100.00;98717.19;5072761;28;20182;-71
2023/03/08 03:56:21;;;;;;;4.50;4.10;;;;;;;-0.44;100.00;98719.34;5074008;28;20932;-71
2023/03/08 03:58:47;;;;;;;4.23;3.20;;;;;;;-0.46;100.00;98713.44;5074339;28;20182;-71
2023/03/08 04:01:15;;;;;;;4.60;4.20;;;;;;;-0.51;100.00;98714.31;5073687;28;20444;-71
2023/03/08 04:03:41;;;;;;;4.97;4.20;;;;;;;-0.54;100.00;98714.06;5074092;28;20413;-71
2023/03/08 04:06:18;;;;;;;3.80;3.50;;;;;;;-0.56;100.00;98716.25;5073782;28;20429;-71
2023/03/08 04:08:43;;;;;;;4.23;3.93;;;;;;;-0.60;100.00;98711.41;5073469;28;20583;-71
2023/03/08 04:11:14;;;;;;;4.73;4.27;;;;;;;-0.61;100.00;98717.88;5073782;28;20420;-70
2023/03/08 04:13:40;;;;;;;3.73;3.20;;;;;;;-0.60;100.00;98713.28;5073654;28;20181;-71
2023/03/08 04:16:33;;;;;;;11.43;4.17;;;;;;;-0.66;100.00;98712.56;5073687;28;20417;-71
2023/03/08 04:19:05;;;;;;;2.97;2.67;;;;;;;-0.71;100.00;98714.47;5070009;28;20194;-70
2023/03/08 04:21:32;;;;;;;4.03;2.73;;;;;;;-0.73;100.00;98714.75;5073383;28;20575;-70
2023/03/08 04:23:58;;;;;;;3.20;2.97;;;;;;;-0.71;100.00;98717.97;5073270;28;20519;-70
2023/03/08 04:26:24;;;;;;;5.93;4.63;;;;;;;-0.72;100.00;98719.03;5073457;28;20509;-71
2023/03/08 04:28:49;;;;;;;2.83;2.53;;;;;;;-0.73;100.00;98719.28;5073281;28;20206;-74
2023/03/08 04:31:16;;;;;;;7.70;3.07;;;;;;;-0.78;100.00;98714.00;5073488;28;20174;-70
2023/03/08 04:33:41;;;;;;;4.97;3.67;;;;;;;-0.80;100.00;98711.59;5073487;28;20194;-70
2023/03/08 04:36:07;;;;;;;4.67;4.17;;;;;;;-0.79;100.00;98707.03;5073485;28;20416;-70
2023/03/08 04:38:33;;;;;;;13.47;3.40;;;;;;;-0.78;100.00;98708.63;5073170;28;20648;-78
2023/03/08 04:41:03;;;;;;;3.73;3.43;;;;;;;-0.77;100.00;98715.59;5073370;28;20257;-79
2023/03/08 04:43:28;;;;;;;3.10;2.10;;;;;;;-0.73;100.00;98713.94;5073926;28;20198;-74
2023/03/08 04:45:54;;;;;;;2.93;2.53;;;;;;;-0.72;100.00;98697.59;5073662;28;20455;-76
2023/03/08 04:48:19;;;;;;;3.77;3.40;;;;;;;-0.75;100.00;98691.97;5073554;28;20206;-78
2023/03/08 04:50:51;;;;;;;3.30;3.03;;;;;;;-0.75;100.00;98706.19;5072597;28;20638;-79
2023/03/08 04:53:16;;;;;;;5.13;3.37;;;;;;;-0.75;100.00;98705.38;5072829;28;20189;-79
2023/03/08 04:55:42;;;;;;;3.10;2.90;;;;;;;-0.75;100.00;98700.81;5071703;28;20773;-79
2023/03/08 04:58:07;;;;;;;2.37;2.17;;;;;;;-0.74;100.00;98697.06;5071558;28;20181;-76
2023/03/08 05:00:32;;;;;;;0.77;0.77;;;;;;;-0.78;100.00;98700.59;5071036;28;20657;-77
2023/03/08 05:02:57;;;;;;;23.53;2.70;;;;;;;-0.83;100.00;98703.31;5072600;28;20257;-76
2023/03/08 05:05:23;;;;;;;1.80;1.70;;;;;;;-0.84;100.00;98699.84;5072773;28;20182;-79
2023/03/08 05:07:48;;;;;;;1.17;1.07;;;;;;;-0.86;100.00;98702.00;5071511;28;20210;-71
2023/03/08 05:10:14;;;;;;;6.53;2.23;;;;;;;-0.86;100.00;98707.34;5074216;28;20266;-71
2023/03/08 05:12:39;;;;;;;2.33;1.90;;;;;;;-0.87;100.00;98696.88;5080055;28;20230;-70
2023/03/08 05:15:05;;;;;;;1.83;1.70;;;;;;;-0.90;100.00;98707.09;5074710;28;20170;-70
2023/03/08 05:17:30;;;;;;;1.83;1.73;;;;;;;-0.95;100.00;98711.69;5071200;28;20588;-70
2023/03/08 05:19:55;;;;;;;1.63;1.20;;;;;;;-0.99;100.00;98699.94;5072646;28;20183;-71
2023/03/08 05:22:21;;;;;;;2.77;2.13;;;;;;;-1.03;100.00;98698.88;5073165;28;20535;-70
2023/03/08 05:24:47;;;;;;;1.20;1.10;;;;;;;-1.02;100.00;98700.47;5073190;28;20325;-71
2023/03/08 05:27:12;;;;;;;2.77;2.57;;;;;;;-1.01;100.00;98699.44;5071191;28;20570;-73
2023/03/08 05:29:38;;;;;;;2.80;2.53;;;;;;;-0.98;100.00;98696.19;5072679;28;20436;-71
2023/03/08 05:32:03;;;;;;;1.73;1.67;;;;;;;-1.01;100.00;98688.72;5071180;28;20179;-71
2023/03/08 05:34:29;;;;;;;0.73;0.73;;;;;;;-1.02;100.00;98684.41;5072076;28;20178;-70
2023/03/08 05:36:54;;;;;;;1.70;1.60;;;;;;;-1.01;100.00;98680.66;5072121;28;20198;-71
2023/03/08 05:39:20;;;;;;;4.23;0.83;;;;;;;-1.00;100.00;98672.34;5072194;28;20177;-71
2023/03/08 05:41:45;;;;;;;1.17;1.17;;;;;;;-1.00;100.00;98668.88;5072266;28;20284;-80
2023/03/08 05:44:11;;;;;;;2.33;2.03;;;;;;;-0.95;100.00;98668.81;5072233;28;20532;-81
2023/03/08 05:46:37;;;;;;;3.03;2.37;;;;;;;-0.93;100.00;98666.66;5075916;28;20316;-80
2023/03/08 05:49:04;;;;;;;1.60;1.50;;;;;;;-0.85;100.00;98667.94;5074102;28;20285;-80
2023/03/08 05:51:29;;;;;;;0.57;0.57;;;;;;;-0.80;100.00;98674.06;5071995;28;20417;-80
2023/03/08 05:53:54;;;;;;;0.10;0.10;;;;;;;-0.79;100.00;98669.50;5071945;28;20432;-78
2023/03/08 05:56:21;;;;;;;1.17;1.17;;;;;;;-0.74;100.00;98680.97;5071831;28;20649;-79
2023/03/08 05:58:47;;;;;;;3.27;1.97;;;;;;;-0.75;100.00;98679.38;5072177;28;20281;-81
2023/03/08 06:01:17;;;;;;;0.00;0.00;;;;;;;-0.67;100.00;98673.41;5071919;28;20175;-77
2023/03/08 06:03:48;;;;;;;0.00;0.00;;;;;;;-0.59;100.00;98680.03;5071773;28;20518;-79
2023/03/08 06:06:14;;;;;;;0.17;0.17;;;;;;;-0.53;100.00;98678.13;5071820;28;20175;-80
2023/03/08 06:08:40;;;;;;;0.50;0.50;;;;;;;-0.50;100.00;98682.91;5070925;28;20548;-79
2023/03/08 06:11:05;;;;;;;2.63;2.07;;;;;;;-0.52;100.00;98691.25;5071600;28;20269;-78
2023/03/08 06:13:31;;;;;;;1.93;1.83;;;;;;;-0.58;100.00;98687.00;5070995;28;20179;-80
2023/03/08 06:15:58;;;;;;;2.30;1.67;;;;;;;-0.61;100.00;98687.56;5071580;28;20661;-81
2023/03/08 06:18:24;;;;;;;1.37;1.33;;;;;;;-0.70;100.00;98692.75;5070343;28;20526;-79
2023/03/08 06:21:00;;;;;;;2.73;1.83;;;;;;;-0.73;100.00;98689.81;5071399;28;20420;-81
2023/03/08 06:23:27;;;;;;;4.03;2.07;;;;;;;-0.75;100.00;98689.28;5071552;28;20425;-79
2023/03/08 06:25:53;;;;;;;4.00;3.33;;;;;;;-0.81;100.00;98693.91;5070024;28;20506;-81
2023/03/08 06:28:19;;;;;;;3.53;2.67;;;;;;;-0.84;100.00;98686.44;5069771;28;20542;-78
2023/03/08 06:30:48;;;;;;;2.87;2.67;;;;;;;-0.85;100.00;98679.47;5070286;28;20178;-80
2023/03/08 06:33:15;;;;;;;3.43;3.13;;;;;;;-0.86;100.00;98682.44;5071545;28;20229;-78
2023/03/08 06:35:41;;;;;;;4.00;2.93;;;;;;;-0.87;100.00;98678.13;5071142;28;20511;-80
2023/03/08 06:38:06;;;;;;;7.23;5.77;;;;;;;-0.83;100.00;98673.81;5070925;28;20520;-80
2023/03/08 06:40:32;;;;;;;41.93;25.87;;;;;;;-0.77;100.00;98667.31;5071155;28;20262;-80
2023/03/08 06:42:57;;;;;;;32.27;24.27;;;;;;;-0.69;100.00;98672.91;5069757;28;20178;-80
2023/03/08 06:45:22;;;;;;;6.07;4.37;;;;;;;-0.61;100.00;98666.13;5071362;28;20185;-79
2023/03/08 06:47:47;;;;;;;9.80;9.10;;;;;;;-0.59;100.00;98661.25;5070757;28;20649;-79
2023/03/08 06:50:13;;;;;;;12.80;7.60;;;;;;;-0.54;100.00;98674.66;5071130;28;20213;-79
2023/03/08 06:52:38;;;;;;;5.97;5.47;;;;;;;-0.52;100.00;98672.47;5070993;28;20158;-80
2023/03/08 06:55:04;;;;;;;1.27;1.20;;;;;;;-0.46;100.00;98676.69;5070795;28;20193;-81
2023/03/08 06:57:29;;;;;;;19.43;17.57;;;;;;;-0.44;100.00;98671.06;5070652;28;20232;-79
2023/03/08 06:59:55;;;;;;;8.10;7.60;;;;;;;-0.42;100.00;98669.72;5070826;28;20253;-79
2023/03/08 07:02:20;;;;;;;3.00;2.80;;;;;;;-0.39;100.00;98663.78;5070778;28;20526;-80
2023/03/08 07:04:45;;;;;;;1.87;1.80;;;;;;;-0.35;100.00;98666.69;5070706;28;20291;-77
2023/03/08 07:07:10;;;;;;;1.70;1.60;;;;;;;-0.31;100.00;98665.03;5070191;28;20648;-81
2023/03/08 07:09:36;;;;;;;1.50;1.50;;;;;;;-0.25;100.00;98671.16;5070784;28;20179;-79
2023/03/08 07:12:01;;;;;;;1.10;1.10;;;;;;;-0.19;100.00;98664.63;5071009;28;20236;-79
2023/03/08 07:14:26;;;;;;;3.20;3.00;;;;;;;-0.18;100.00;98660.88;5070747;28;20232;-78
2023/03/08 07:16:52;;;;;;;3.90;1.60;;;;;;;-0.17;100.00;98662.47;5069246;28;20713;-77
2023/03/08 07:19:17;;;;;;;5.30;4.00;;;;;;;-0.14;100.00;98656.56;5070533;28;20185;-80
2023/03/08 07:21:43;;;;;;;3.53;3.13;;;;;;;-0.17;100.00;98646.38;5070584;28;20177;-79
2023/03/08 07:24:09;;;;;;;4.90;1.80;;;;;;;-0.17;100.00;98647.16;5072527;28;20173;-78
2023/03/08 07:26:35;;;;;;;0.67;0.67;;;;;;;-0.16;100.00;98632.66;5073543;28;20182;-79
2023/03/08 07:29:00;;;;;;;1.23;1.20;;;;;;;-0.15;100.00;98636.94;5074924;28;20456;-76
2023/03/08 07:31:27;;;;;;;4.23;4.03;;;;;;;-0.13;100.00;98642.84;5074650;28;20192;-79
2023/03/08 07:33:53;;;;;;;6.80;2.80;;;;;;;-0.14;100.00;98633.19;5074314;28;20243;-81
2023/03/08 07:36:18;;;;;;;0.97;0.97;;;;;;;-0.12;100.00;98636.38;5074611;28;20905;-77
2023/03/08 07:38:45;;;;;;;3.47;3.27;;;;;;;-0.10;100.00;98638.78;5074232;28;20691;-83
2023/03/08 07:41:10;;;;;;;3.13;2.97;;;;;;;-0.11;100.00;98629.13;5074546;28;20174;-81
2023/03/08 07:43:36;;;;;;;0.87;0.87;;;;;;;-0.10;100.00;98622.69;5074517;28;20652;-82
2023/03/08 07:46:01;;;;;;;0.00;0.00;;;;;;;-0.06;100.00;98629.88;5074385;28;20179;-82
2023/03/08 07:48:28;;;;;;;0.00;0.00;;;;;;;0.01;100.00;98631.44;5074125;28;20212;-80
2023/03/08 07:50:54;;;;;;;0.00;0.00;;;;;;;0.10;100.00;98629.69;5074326;28;20170;-83
2023/03/08 07:53:19;;;;;;;0.00;0.00;;;;;;;0.14;100.00;98631.50;5074159;28;20530;-85
2023/03/08 07:55:44;;;;;;;0.00;0.00;;;;;;;0.19;100.00;98636.03;5074311;28;20710;-83
2023/03/08 07:58:10;;;;;;;4.00;3.57;;;;;;;0.25;100.00;98629.50;5073911;28;20178;-82
2023/03/08 08:00:35;;;;;;;5.07;2.67;;;;;;;0.25;100.00;98632.97;5074163;28;20181;-85
2023/03/08 08:03:00;;;;;;;1.53;1.37;;;;;;;0.24;100.00;98630.59;5074078;28;20649;-85
2023/03/08 08:05:26;;;;;;;4.20;3.80;;;;;;;0.19;100.00;98618.03;5073958;28;20175;-83
2023/03/08 08:07:51;;;;;;;3.43;3.23;;;;;;;0.16;100.00;98623.97;5072454;28;20680;-81
2023/03/08 08:10:16;;;;;;;3.40;3.20;;;;;;;0.15;100.00;98625.06;5074124;28;20182;-83
2023/03/08 08:12:42;;;;;;;0.03;0.03;;;;;;;0.18;100.00;98621.00;5072654;28;20239;-81
2023/03/08 08:15:07;;;;;;;0.30;0.30;;;;;;;0.29;100.00;98617.09;5073745;28;20645;-82
2023/03/08 08:17:33;;;;;;;0.53;0.53;;;;;;;0.34;100.00;98618.91;5073571;28;20183;-82
2023/03/08 08:19:58;;;;;;;0.23;0.23;;;;;;;0.12;100.00;98617.56;5074084;28;20179;-80
2023/03/08 08:22:24;;;;;;;0.00;0.00;;;;;;;0.24;100.00;98620.63;5073676;28;20179;-76
2023/03/08 08:24:49;;;;;;;0.00;0.00;;;;;;;0.28;100.00;98618.16;5073623;28;20534;-81
2023/03/08 08:27:14;;;;;;;0.00;0.00;;;;;;;0.50;100.00;98628.34;5073302;28;20189;-78
2023/03/08 08:29:39;;;;;;;0.03;0.03;;;;;;;0.48;100.00;98615.22;5073629;28;20269;-78
2023/03/08 08:32:05;;;;;;;0.20;0.20;;;;;;;0.57;100.00;98610.78;5073421;28;20631;-78
2023/03/08 08:34:31;;;;;;;3.87;3.50;;;;;;;0.49;100.00;98606.06;5073295;28;20190;-78
2023/03/08 08:36:56;;;;;;;2.97;1.60;;;;;;;0.42;100.00;98600.25;5072488;28;20654;-77
2023/03/08 08:39:21;;;;;;;2.30;1.93;;;;;;;0.38;100.00;98601.94;5071870;28;20174;-78
2023/03/08 08:41:50;;;;;;;0.30;0.30;;;;;;;0.38;100.00;98599.25;5073368;28;20183;-78
2023/03/08 08:44:15;;;;;;;2.90;2.43;;;;;;;0.44;100.00;98605.34;5071933;28;20638;-80
2023/03/08 08:46:40;;;;;;;0.00;0.00;;;;;;;0.57;100.00;98608.09;5072878;28;20182;-75
2023/03/08 08:49:06;;;;;;;1.30;1.30;;;;;;;0.63;100.00;98598.09;5072774;28;20233;-79
2023/03/08 08:51:31;;;;;;;0.00;0.00;;;;;;;0.73;100.00;98594.47;5072751;28;20578;-77
2023/03/08 08:53:57;;;;;;;0.00;0.00;;;;;;;0.88;100.00;98603.06;5072703;28;20178;-76
2023/03/08 08:56:25;;;;;;;0.40;0.40;;;;;;;0.99;100.00;98601.00;5072686;28;20178;-77
2023/03/08 08:58:50;;;;;;;0.43;0.43;;;;;;;1.09;100.00;98594.66;5072356;28;20175;-84
2023/03/08 09:01:18;;;;;;;0.37;0.37;;;;;;;1.13;100.00;98591.09;5071240;28;20435;-80
2023/03/08 09:03:45;;;;;;;0.00;0.00;;;;;;;1.10;100.00;98586.31;5071096;28;20205;-80
2023/03/08 09:06:11;;;;;;;0.00;0.00;;;;;;;1.22;100.00;98585.84;5070931;28;20236;-81
2023/03/08 09:08:36;;;;;;;0.10;0.10;;;;;;;1.21;100.00;98586.13;5070736;28;20221;-78
2023/03/08 09:11:04;;;;;;;0.00;0.00;;;;;;;1.16;100.00;98579.75;5072380;28;20175;-76
2023/03/08 09:13:30;;;;;;;2.27;1.63;;;;;;;1.30;100.00;98574.41;5072333;28;20228;-77
2023/03/08 09:15:55;;;;;;;1.03;0.87;;;;;;;1.18;100.00;98569.50;5072284;28;20178;-76
2023/03/08 09:18:20;;;;;;;0.00;0.00;;;;;;;1.16;100.00;98563.63;5072159;28;20182;-75
2023/03/08 09:20:46;;;;;;;0.00;0.00;;;;;;;1.23;100.00;98560.53;5070869;28;20244;-77
2023/03/08 09:23:11;;;;;;;7.30;3.83;;;;;;;1.35;100.00;98558.16;5072094;28;20716;-76
2023/03/08 09:25:36;;;;;;;0.63;0.63;;;;;;;1.28;100.00;98555.06;5072193;28;20183;-76
2023/03/08 09:28:02;;;;;;;0.00;0.00;;;;;;;1.37;100.00;98547.91;5071752;28;20597;-77
2023/03/08 09:30:28;;;;;;;0.00;0.00;;;;;;;1.40;100.00;98543.81;5070712;28;20174;-77
2023/03/08 09:32:53;;;;;;;0.30;0.20;;;;;;;1.52;100.00;98546.03;5067922;28;20657;-72
2023/03/08 09:35:19;;;;;;;2.07;1.97;;;;;;;1.46;100.00;98539.94;5071694;28;20207;-77
2023/03/08 09:37:44;;;;;;;0.00;0.00;;;;;;;1.32;100.00;98531.06;5071729;28;20171;-77
2023/03/08 09:40:18;;;;;;;2.20;2.10;;;;;;;1.53;100.00;98536.84;5071838;28;20657;-75
2023/03/08 09:42:44;;;;;;;2.63;2.53;;;;;;;1.49;100.00;98526.69;5071700;28;20174;-76
2023/03/08 09:45:18;;;;;;;0.00;0.00;;;;;;;1.54;100.00;98525.00;5071671;28;20173;-74
2023/03/08 09:47:52;;;;;;;0.70;0.70;;;;;;;1.63;100.00;98520.50;5068937;28;20555;-77
2023/03/08 09:50:56;;;;;;;0.33;0.33;;;;;;;1.68;100.00;98520.41;5071543;28;20174;-77
2023/03/08 09:53:33;;;;;;;0.00;0.00;;;;;;;1.81;100.00;98513.41;5061465;28;20187;-77
2023/03/08 09:56:18;;;;;;;1.23;1.20;;;;;;;1.93;100.00;98511.00;5071437;28;20684;-78
2023/03/08 09:59:12;;;;;;;0.00;0.00;;;;;;;2.02;100.00;98506.47;5070070;28;20178;-77
2023/03/08 10:01:56;;;;;;;0.00;0.00;;;;;;;2.01;100.00;98494.91;5044826;28;20902;-76
2023/03/08 10:04:31;;;;;;;0.03;0.03;;;;;;;1.97;100.00;98498.53;5071259;28;20245;-76
2023/03/08 10:07:05;;;;;;;1.43;1.43;;;;;;;1.92;99.07;98485.97;5070912;28;20491;-81
2023/03/08 10:09:36;;;;;;;0.27;0.27;;;;;;;1.91;99.34;98484.38;5069943;28;20272;-77
2023/03/08 10:12:29;;;;;;;0.97;0.97;;;;;;;1.92;99.95;98487.88;5071315;28;20403;-76
2023/03/08 10:15:13;;;;;;;0.77;0.77;;;;;;;1.95;100.00;98479.19;5071230;28;20178;-77
2023/03/08 10:17:49;;;;;;;4.47;3.47;;;;;;;2.02;100.00;98476.84;5070917;28;20158;-77
2023/03/08 10:20:23;;;;;;;0.80;0.80;;;;;;;1.95;99.35;98466.50;5069771;28;20171;-73
2023/03/08 10:23:15;;;;;;;2.60;2.40;;;;;;;1.90;99.97;98474.72;5070879;28;20174;-72
2023/03/08 10:25:41;;;;;;;1.30;1.30;;;;;;;1.85;99.74;98463.25;5062788;28;20192;-75
2023/03/08 10:28:14;;;;;;;1.00;0.83;;;;;;;1.87;100.00;98471.81;5070550;28;20234;-76
2023/03/08 10:30:49;;;;;;;0.00;0.00;;;;;;;1.86;100.00;98454.06;5070767;28;20258;-73
2023/03/08 10:33:17;;;;;;;2.90;2.70;;;;;;;1.88;100.00;98455.38;5070603;28;20178;-76
2023/03/08 10:35:57;;;;;;;0.33;0.33;;;;;;;1.91;100.00;98453.97;5070692;28;20232;-76
2023/03/08 10:38:26;;;;;;;1.33;1.33;;;;;;;1.91;100.00;98456.66;5070413;28;20189;-79
2023/03/08 10:41:18;;;;;;;2.20;2.10;;;;;;;2.02;100.00;98442.66;5070565;28;20186;-75
2023/03/08 10:43:52;;;;;;;2.00;1.90;;;;;;;2.01;100.00;98453.72;5065403;28;20225;-78
2023/03/08 10:46:30;;;;;;;0.00;0.00;;;;;;;1.96;100.00;98445.78;5069214;28;20174;-74
2023/03/08 10:49:07;;;;;;;2.00;1.70;;;;;;;1.84;100.00;98430.16;5068979;28;20206;-77
2023/03/08 10:51:32;;;;;;;1.87;1.77;;;;;;;1.77;99.65;98435.97;5070014;28;20534;-78
2023/03/08 10:54:04;;;;;;;0.67;0.67;;;;;;;1.85;100.00;98434.44;5070467;28;20174;-75
2023/03/08 10:56:39;;;;;;;0.20;0.20;;;;;;;1.92;100.00;98426.75;5070448;28;20177;-77
2023/03/08 10:59:14;;;;;;;0.03;0.03;;;;;;;1.95;100.00;98430.72;5070133;28;20505;-77
2023/03/08 11:01:54;;;;;;;3.03;2.87;;;;;;;1.99;100.00;98429.00;5070534;28;20559;-73
2023/03/08 11:04:22;;;;;;;0.00;0.00;;;;;;;2.00;100.00;98428.69;5070251;28;20183;-78
2023/03/08 11:06:48;;;;;;;2.30;2.00;;;;;;;2.13;100.00;98431.66;5070043;28;20480;-75
2023/03/08 11:09:27;;;;;;;0.33;0.33;;;;;;;2.11;100.00;98425.78;5069403;28;20328;-78
2023/03/08 11:11:56;;;;;;;1.27;1.27;;;;;;;2.11;100.00;98423.06;5070071;28;20182;-78
2023/03/08 11:14:23;;;;;;;0.00;0.00;;;;;;;2.09;99.59;98421.50;5069656;28;20170;-76
2023/03/08 11:17:09;;;;;;;0.00;0.00;;;;;;;2.19;99.80;98428.53;5069801;28;20174;-80
2023/03/08 11:19:52;;;;;;;0.10;0.10;;;;;;;2.35;99.67;98428.97;5070345;28;20170;-79
2023/03/08 11:22:28;;;;;;;0.00;0.00;;;;;;;2.37;96.44;98424.84;5070572;28;20403;-81
2023/03/08 11:25:09;;;;;;;0.10;0.10;;;;;;;2.40;93.65;98409.97;5070413;28;20206;-82
2023/03/08 11:28:11;;;;;;;0.00;0.00;;;;;;;2.49;92.04;98410.84;5070027;28;20208;-81
2023/03/08 11:31:02;;;;;;;0.20;0.20;;;;;;;2.53;91.32;98406.41;5070231;28;20198;-78
2023/03/08 11:33:42;;;;;;;0.00;0.00;;;;;;;2.49;91.69;98416.22;5069962;28;20166;-80